Main page
METAR-TAF:

METAR-TAF

Airports :

Brive–Dordogne Valley Airport

Brive-la-Gaillarde, France

latitude: 45-02-28N, longitude: 001-28-59E, elevation: 311 m

Current weather observation

The report was made 27 minutes ago, at 14:00 UTC
Wind 8 kt from the South/Southeast, varying between East/Southeast and South/Southwest
Temperature 20°C
Humidity 60%
Pressure 1022 hPa
Visibility 10 km or more
Few clouds at a height of 3400 ft

METAR: LFSL 141400Z AUTO 15008KT 110V200 9999 FEW034 20/12 Q1022 NOSIG

Time: 15:27 (14:27 UTC)

Forecast

The report was made 3 hours and 27 minutes ago, at 11:00 UTC
Forecast valid from 14 at 12 UTC to 14 at 21 UTC
Wind 8 kt from the Southeast
Visibility 10 km or more
no clouds below 1500 m and no cumulonimbus

TAF: LFSL 141100Z 1412/1421 13008KT CAVOK

Weather observations and forecasts of more than 4000 airports (METAR and TAF reports).

The available stations are represented by yellow and red dots on the map.

Hover mouse over dot to see the name of the station.

Then click to see weather observations and forecasts.

To change the map : click on the green buttons with a black cross to zoom in, on the green button with a dash to zoom out, or on the green arrows for adjacent maps.


METAR-TAF: